Arlington, Massachusetts
Current Conditions -  °F | °C
As of 9:38 AM on Tuesday 21 Oct 2014 (Local Time) from KBED Reporting Station
Light Rain Light Rain  
Wind Chill: 49°   Ceiling: 2900
Heat Index: 49°   Visibility: 10mi
Dew Point: 45°   Wind: 3mph
Humidity: 86%   Direction: 360°N
Pressure: 29.98"   Gusts: NA
Location:  42.42°N, 71.16°W
Report Text: KBED 211338Z 36003KT 10SM -RA FEW023 BKN029 OVC070 09/07 A2998 RMK AO2 RAB32 P0000 T00940072
Loading
Personal Weather Stations






























Interactive Weather Map
Tropical Storm Tracking
New forecast layout! Learn more

10-Day Weather Forecast

Advertisements
Track Severe Weather on mobile